sensor_id;sensor_type;location;lat;lon;timestamp;temperature;humidity
30999;DHT22;20549;50.042;8.968;2023-07-31T00:01:12;21.50;59.60
30999;DHT22;20549;50.042;8.968;2023-07-31T00:03:38;21.50;59.60
30999;DHT22;20549;50.042;8.968;2023-07-31T00:06:05;21.50;59.60
30999;DHT22;20549;50.042;8.968;2023-07-31T00:08:31;21.60;59.60
30999;DHT22;20549;50.042;8.968;2023-07-31T00:10:58;21.60;59.60
30999;DHT22;20549;50.042;8.968;2023-07-31T00:13:24;21.60;59.60
30999;DHT22;20549;50.042;8.968;2023-07-31T00:15:51;21.60;59.60
30999;DHT22;20549;50.042;8.968;2023-07-31T00:18:18;21.60;59.50
30999;DHT22;20549;50.042;8.968;2023-07-31T00:20:44;21.60;59.60
30999;DHT22;20549;50.042;8.968;2023-07-31T00:23:11;21.60;59.60
30999;DHT22;20549;50.042;8.968;2023-07-31T00:25:37;21.60;59.60
30999;DHT22;20549;50.042;8.968;2023-07-31T00:28:04;21.60;59.60
30999;DHT22;20549;50.042;8.968;2023-07-31T00:30:31;21.60;59.60
30999;DHT22;20549;50.042;8.968;2023-07-31T00:32:57;21.60;59.60
30999;DHT22;20549;50.042;8.968;2023-07-31T00:35:24;21.60;59.60
30999;DHT22;20549;50.042;8.968;2023-07-31T00:37:50;21.60;59.60
30999;DHT22;20549;50.042;8.968;2023-07-31T00:40:17;21.70;59.60
30999;DHT22;20549;50.042;8.968;2023-07-31T00:42:44;21.60;59.60
30999;DHT22;20549;50.042;8.968;2023-07-31T00:45:10;21.60;59.60
30999;DHT22;20549;50.042;8.968;2023-07-31T00:47:37;21.60;59.60
30999;DHT22;20549;50.042;8.968;2023-07-31T00:50:03;21.60;59.60
30999;DHT22;20549;50.042;8.968;2023-07-31T00:52:30;21.60;59.70
30999;DHT22;20549;50.042;8.968;2023-07-31T00:54:56;21.60;59.60
30999;DHT22;20549;50.042;8.968;2023-07-31T00:57:23;21.60;59.60
30999;DHT22;20549;50.042;8.968;2023-07-31T00:59:50;21.60;59.60
30999;DHT22;20549;50.042;8.968;2023-07-31T01:02:16;21.60;59.70
30999;DHT22;20549;50.042;8.968;2023-07-31T01:04:43;21.60;59.70
30999;DHT22;20549;50.042;8.968;2023-07-31T01:10:16;21.60;59.70
30999;DHT22;20549;50.042;8.968;2023-07-31T01:12:42;21.60;59.70
30999;DHT22;20549;50.042;8.968;2023-07-31T01:15:09;21.60;59.70
30999;DHT22;20549;50.042;8.968;2023-07-31T01:17:38;21.60;59.70
30999;DHT22;20549;50.042;8.968;2023-07-31T01:20:05;21.60;59.70
30999;DHT22;20549;50.042;8.968;2023-07-31T01:25:53;21.60;59.80
30999;DHT22;20549;50.042;8.968;2023-07-31T01:28:27;21.60;59.70
30999;DHT22;20549;50.042;8.968;2023-07-31T01:30:52;21.60;59.70
30999;DHT22;20549;50.042;8.968;2023-07-31T01:33:18;21.50;59.70
30999;DHT22;20549;50.042;8.968;2023-07-31T01:35:45;21.50;59.80
30999;DHT22;20549;50.042;8.968;2023-07-31T01:38:12;21.50;59.80
30999;DHT22;20549;50.042;8.968;2023-07-31T01:40:40;21.50;59.80
30999;DHT22;20549;50.042;8.968;2023-07-31T01:43:05;21.50;59.80
30999;DHT22;20549;50.042;8.968;2023-07-31T01:45:31;21.50;59.90
30999;DHT22;20549;50.042;8.968;2023-07-31T01:47:58;21.50;59.80
30999;DHT22;20549;50.042;8.968;2023-07-31T01:50:25;21.50;59.80
30999;DHT22;20549;50.042;8.968;2023-07-31T01:52:51;21.60;59.80
30999;DHT22;20549;50.042;8.968;2023-07-31T01:55:18;21.60;60.10
30999;DHT22;20549;50.042;8.968;2023-07-31T01:57:44;21.60;59.80
30999;DHT22;20549;50.042;8.968;2023-07-31T02:00:11;21.60;59.80
30999;DHT22;20549;50.042;8.968;2023-07-31T02:02:37;21.60;59.80
30999;DHT22;20549;50.042;8.968;2023-07-31T02:05:04;21.60;59.80
30999;DHT22;20549;50.042;8.968;2023-07-31T02:07:31;21.60;59.80
30999;DHT22;20549;50.042;8.968;2023-07-31T02:09:57;21.60;59.80
30999;DHT22;20549;50.042;8.968;2023-07-31T02:12:24;21.60;59.80
30999;DHT22;20549;50.042;8.968;2023-07-31T02:14:50;21.60;59.90
30999;DHT22;20549;50.042;8.968;2023-07-31T02:17:17;21.60;59.90
30999;DHT22;20549;50.042;8.968;2023-07-31T02:19:44;21.60;59.90
30999;DHT22;20549;50.042;8.968;2023-07-31T02:22:10;21.60;59.30
30999;DHT22;20549;50.042;8.968;2023-07-31T02:24:37;21.60;59.90
30999;DHT22;20549;50.042;8.968;2023-07-31T02:27:03;21.60;59.90
30999;DHT22;20549;50.042;8.968;2023-07-31T02:29:30;21.60;59.90
30999;DHT22;20549;50.042;8.968;2023-07-31T02:31:57;21.60;59.90
30999;DHT22;20549;50.042;8.968;2023-07-31T02:34:23;21.60;59.90
30999;DHT22;20549;50.042;8.968;2023-07-31T02:36:50;21.60;59.90
30999;DHT22;20549;50.042;8.968;2023-07-31T02:39:16;21.60;60.00
30999;DHT22;20549;50.042;8.968;2023-07-31T02:41:43;21.60;60.00
30999;DHT22;20549;50.042;8.968;2023-07-31T02:44:09;21.60;60.00
30999;DHT22;20549;50.042;8.968;2023-07-31T02:46:36;21.60;60.00
30999;DHT22;20549;50.042;8.968;2023-07-31T02:49:03;21.60;60.00
30999;DHT22;20549;50.042;8.968;2023-07-31T02:51:29;21.60;60.00
30999;DHT22;20549;50.042;8.968;2023-07-31T02:53:56;21.60;60.00
30999;DHT22;20549;50.042;8.968;2023-07-31T02:56:22;21.60;60.00
30999;DHT22;20549;50.042;8.968;2023-07-31T02:58:49;21.60;60.00
30999;DHT22;20549;50.042;8.968;2023-07-31T03:01:16;21.60;60.00
30999;DHT22;20549;50.042;8.968;2023-07-31T03:03:42;21.60;60.00
30999;DHT22;20549;50.042;8.968;2023-07-31T03:06:09;21.60;60.10
30999;DHT22;20549;50.042;8.968;2023-07-31T03:08:35;21.60;60.10
30999;DHT22;20549;50.042;8.968;2023-07-31T03:11:02;21.60;60.10
30999;DHT22;20549;50.042;8.968;2023-07-31T03:13:29;21.60;60.20
30999;DHT22;20549;50.042;8.968;2023-07-31T03:15:55;21.60;60.20
30999;DHT22;20549;50.042;8.968;2023-07-31T03:18:22;21.60;60.00
30999;DHT22;20549;50.042;8.968;2023-07-31T03:20:48;21.60;60.30
30999;DHT22;20549;50.042;8.968;2023-07-31T03:23:15;21.50;60.30
30999;DHT22;20549;50.042;8.968;2023-07-31T03:25:54;21.50;60.30
30999;DHT22;20549;50.042;8.968;2023-07-31T03:28:08;21.50;60.40
30999;DHT22;20549;50.042;8.968;2023-07-31T03:30:35;21.50;60.40
30999;DHT22;20549;50.042;8.968;2023-07-31T03:33:01;21.50;60.80
30999;DHT22;20549;50.042;8.968;2023-07-31T03:35:28;21.50;61.50
30999;DHT22;20549;50.042;8.968;2023-07-31T03:37:54;21.40;62.10
30999;DHT22;20549;50.042;8.968;2023-07-31T03:40:21;21.40;62.30
30999;DHT22;20549;50.042;8.968;2023-07-31T03:42:48;21.40;62.50
30999;DHT22;20549;50.042;8.968;2023-07-31T03:45:14;21.30;62.60
30999;DHT22;20549;50.042;8.968;2023-07-31T03:47:41;21.30;62.80
30999;DHT22;20549;50.042;8.968;2023-07-31T03:50:07;21.20;62.90
30999;DHT22;20549;50.042;8.968;2023-07-31T03:52:34;21.20;63.20
30999;DHT22;20549;50.042;8.968;2023-07-31T03:55:01;21.10;63.40
30999;DHT22;20549;50.042;8.968;2023-07-31T03:57:27;21.00;63.50
30999;DHT22;20549;50.042;8.968;2023-07-31T03:59:54;20.90;63.70
30999;DHT22;20549;50.042;8.968;2023-07-31T04:02:20;20.90;63.90
30999;DHT22;20549;50.042;8.968;2023-07-31T04:04:47;20.80;64.10
30999;DHT22;20549;50.042;8.968;2023-07-31T04:07:13;20.70;64.20
30999;DHT22;20549;50.042;8.968;2023-07-31T04:09:40;20.70;64.40
30999;DHT22;20549;50.042;8.968;2023-07-31T04:12:07;20.70;64.50
30999;DHT22;20549;50.042;8.968;2023-07-31T04:14:33;20.60;64.60
30999;DHT22;20549;50.042;8.968;2023-07-31T04:17:00;20.60;64.90
30999;DHT22;20549;50.042;8.968;2023-07-31T04:19:26;20.60;65.00
30999;DHT22;20549;50.042;8.968;2023-07-31T04:21:53;20.50;65.00
30999;DHT22;20549;50.042;8.968;2023-07-31T04:24:20;20.50;65.10
30999;DHT22;20549;50.042;8.968;2023-07-31T04:26:46;20.50;65.20
30999;DHT22;20549;50.042;8.968;2023-07-31T04:29:13;20.50;65.30
30999;DHT22;20549;50.042;8.968;2023-07-31T04:31:39;20.50;65.40
30999;DHT22;20549;50.042;8.968;2023-07-31T04:34:06;20.50;65.50
30999;DHT22;20549;50.042;8.968;2023-07-31T04:36:33;20.50;65.50
30999;DHT22;20549;50.042;8.968;2023-07-31T04:38:59;20.50;65.80
30999;DHT22;20549;50.042;8.968;2023-07-31T04:41:26;20.50;65.50
30999;DHT22;20549;50.042;8.968;2023-07-31T04:43:52;20.60;65.50
30999;DHT22;20549;50.042;8.968;2023-07-31T04:46:19;20.60;66.30
30999;DHT22;20549;50.042;8.968;2023-07-31T04:48:45;20.60;65.50
30999;DHT22;20549;50.042;8.968;2023-07-31T04:51:12;20.60;65.50
30999;DHT22;20549;50.042;8.968;2023-07-31T04:53:39;20.60;65.70
30999;DHT22;20549;50.042;8.968;2023-07-31T04:56:05;20.70;65.70
30999;DHT22;20549;50.042;8.968;2023-07-31T04:58:32;20.70;65.70
30999;DHT22;20549;50.042;8.968;2023-07-31T05:00:58;20.80;65.80
30999;DHT22;20549;50.042;8.968;2023-07-31T05:03:25;20.80;65.80
30999;DHT22;20549;50.042;8.968;2023-07-31T05:05:52;20.90;65.80
30999;DHT22;20549;50.042;8.968;2023-07-31T05:08:18;20.90;65.70
30999;DHT22;20549;50.042;8.968;2023-07-31T05:10:45;20.90;65.80
30999;DHT22;20549;50.042;8.968;2023-07-31T05:13:11;21.00;65.70
30999;DHT22;20549;50.042;8.968;2023-07-31T05:15:38;21.10;65.70
30999;DHT22;20549;50.042;8.968;2023-07-31T05:18:05;21.10;65.60
30999;DHT22;20549;50.042;8.968;2023-07-31T05:20:31;21.10;65.60
30999;DHT22;20549;50.042;8.968;2023-07-31T05:22:58;21.20;65.50
30999;DHT22;20549;50.042;8.968;2023-07-31T05:25:24;21.20;65.50
30999;DHT22;20549;50.042;8.968;2023-07-31T05:27:51;21.30;65.60
30999;DHT22;20549;50.042;8.968;2023-07-31T05:30:18;21.30;65.60
30999;DHT22;20549;50.042;8.968;2023-07-31T05:32:44;21.40;65.60
30999;DHT22;20549;50.042;8.968;2023-07-31T05:35:11;21.40;65.50
30999;DHT22;20549;50.042;8.968;2023-07-31T05:37:37;21.50;65.60
30999;DHT22;20549;50.042;8.968;2023-07-31T05:40:04;21.50;65.50
30999;DHT22;20549;50.042;8.968;2023-07-31T05:42:31;21.60;65.40
30999;DHT22;20549;50.042;8.968;2023-07-31T05:44:57;21.60;65.40
30999;DHT22;20549;50.042;8.968;2023-07-31T05:47:24;21.60;65.40
30999;DHT22;20549;50.042;8.968;2023-07-31T05:49:50;21.70;65.30
30999;DHT22;20549;50.042;8.968;2023-07-31T05:52:20;21.80;65.20
30999;DHT22;20549;50.042;8.968;2023-07-31T05:54:46;21.80;64.80
30999;DHT22;20549;50.042;8.968;2023-07-31T05:57:13;21.80;64.60
30999;DHT22;20549;50.042;8.968;2023-07-31T05:59:40;21.80;64.50
30999;DHT22;20549;50.042;8.968;2023-07-31T06:02:06;21.90;64.50
30999;DHT22;20549;50.042;8.968;2023-07-31T06:04:33;21.80;64.40
30999;DHT22;20549;50.042;8.968;2023-07-31T06:06:59;21.90;64.50
30999;DHT22;20549;50.042;8.968;2023-07-31T06:09:26;21.90;64.50
30999;DHT22;20549;50.042;8.968;2023-07-31T06:11:53;21.90;64.50
30999;DHT22;20549;50.042;8.968;2023-07-31T06:14:19;22.00;64.50
30999;DHT22;20549;50.042;8.968;2023-07-31T06:16:46;22.00;64.50
30999;DHT22;20549;50.042;8.968;2023-07-31T06:19:12;22.10;64.40
30999;DHT22;20549;50.042;8.968;2023-07-31T06:21:39;22.10;64.40
30999;DHT22;20549;50.042;8.968;2023-07-31T06:24:05;22.20;64.30
30999;DHT22;20549;50.042;8.968;2023-07-31T06:26:32;22.30;64.20
30999;DHT22;20549;50.042;8.968;2023-07-31T06:28:59;22.30;64.10
30999;DHT22;20549;50.042;8.968;2023-07-31T06:31:25;22.40;64.10
30999;DHT22;20549;50.042;8.968;2023-07-31T06:33:52;22.50;64.00
30999;DHT22;20549;50.042;8.968;2023-07-31T06:36:18;22.70;64.10
30999;DHT22;20549;50.042;8.968;2023-07-31T06:38:45;22.80;64.00
30999;DHT22;20549;50.042;8.968;2023-07-31T06:41:12;23.00;64.10
30999;DHT22;20549;50.042;8.968;2023-07-31T06:43:38;23.30;64.40
30999;DHT22;20549;50.042;8.968;2023-07-31T06:46:07;23.50;63.90
30999;DHT22;20549;50.042;8.968;2023-07-31T06:48:34;23.80;63.40
30999;DHT22;20549;50.042;8.968;2023-07-31T06:51:01;24.00;63.00
30999;DHT22;20549;50.042;8.968;2023-07-31T06:53:28;24.20;62.30
30999;DHT22;20549;50.042;8.968;2023-07-31T06:55:54;24.30;61.80
30999;DHT22;20549;50.042;8.968;2023-07-31T06:58:20;24.50;61.50
30999;DHT22;20549;50.042;8.968;2023-07-31T07:00:47;24.60;61.00
30999;DHT22;20549;50.042;8.968;2023-07-31T07:03:14;24.70;60.70
30999;DHT22;20549;50.042;8.968;2023-07-31T07:05:40;24.90;60.70
30999;DHT22;20549;50.042;8.968;2023-07-31T07:08:07;25.00;61.00
30999;DHT22;20549;50.042;8.968;2023-07-31T07:10:33;25.40;61.70
30999;DHT22;20549;50.042;8.968;2023-07-31T07:13:00;25.90;62.80
30999;DHT22;20549;50.042;8.968;2023-07-31T07:15:26;26.50;62.90
30999;DHT22;20549;50.042;8.968;2023-07-31T07:17:53;27.20;61.80
30999;DHT22;20549;50.042;8.968;2023-07-31T07:20:20;27.80;60.40
30999;DHT22;20549;50.042;8.968;2023-07-31T07:22:46;28.40;59.60
30999;DHT22;20549;50.042;8.968;2023-07-31T07:25:13;28.90;58.40
30999;DHT22;20549;50.042;8.968;2023-07-31T07:27:39;29.30;57.30
30999;DHT22;20549;50.042;8.968;2023-07-31T07:30:06;29.60;56.20
30999;DHT22;20549;50.042;8.968;2023-07-31T07:32:33;29.60;55.20
30999;DHT22;20549;50.042;8.968;2023-07-31T07:34:59;29.60;54.70
30999;DHT22;20549;50.042;8.968;2023-07-31T07:37:26;29.50;54.10
30999;DHT22;20549;50.042;8.968;2023-07-31T07:39:53;29.40;53.80
30999;DHT22;20549;50.042;8.968;2023-07-31T07:42:19;29.20;53.70
30999;DHT22;20549;50.042;8.968;2023-07-31T07:44:46;29.00;53.70
30999;DHT22;20549;50.042;8.968;2023-07-31T07:47:12;28.90;54.00
30999;DHT22;20549;50.042;8.968;2023-07-31T07:49:39;28.90;54.50
30999;DHT22;20549;50.042;8.968;2023-07-31T07:52:05;29.00;55.00
30999;DHT22;20549;50.042;8.968;2023-07-31T07:54:32;29.10;55.40
30999;DHT22;20549;50.042;8.968;2023-07-31T07:56:59;29.40;55.20
30999;DHT22;20549;50.042;8.968;2023-07-31T07:59:25;29.70;54.80
30999;DHT22;20549;50.042;8.968;2023-07-31T08:01:52;29.90;54.10
30999;DHT22;20549;50.042;8.968;2023-07-31T08:04:18;30.00;53.00
30999;DHT22;20549;50.042;8.968;2023-07-31T08:06:45;30.00;52.70
30999;DHT22;20549;50.042;8.968;2023-07-31T08:09:12;30.00;52.50
30999;DHT22;20549;50.042;8.968;2023-07-31T08:11:38;30.00;52.60
30999;DHT22;20549;50.042;8.968;2023-07-31T08:14:05;29.90;52.70
30999;DHT22;20549;50.042;8.968;2023-07-31T08:16:31;30.00;52.80
30999;DHT22;20549;50.042;8.968;2023-07-31T08:18:58;30.00;52.90
30999;DHT22;20549;50.042;8.968;2023-07-31T08:21:25;30.10;52.60
30999;DHT22;20549;50.042;8.968;2023-07-31T08:23:51;30.10;52.40
30999;DHT22;20549;50.042;8.968;2023-07-31T08:26:18;30.10;52.10
30999;DHT22;20549;50.042;8.968;2023-07-31T08:28:44;30.10;52.00
30999;DHT22;20549;50.042;8.968;2023-07-31T08:31:11;30.10;52.20
30999;DHT22;20549;50.042;8.968;2023-07-31T08:33:38;30.10;52.00
30999;DHT22;20549;50.042;8.968;2023-07-31T08:36:04;30.10;51.50
30999;DHT22;20549;50.042;8.968;2023-07-31T08:38:31;30.00;51.20
30999;DHT22;20549;50.042;8.968;2023-07-31T08:40:57;29.90;51.10
30999;DHT22;20549;50.042;8.968;2023-07-31T08:43:27;29.60;50.90
30999;DHT22;20549;50.042;8.968;2023-07-31T08:45:53;29.40;50.80
30999;DHT22;20549;50.042;8.968;2023-07-31T08:48:23;29.10;50.80
30999;DHT22;20549;50.042;8.968;2023-07-31T08:50:46;28.90;51.00
30999;DHT22;20549;50.042;8.968;2023-07-31T08:53:13;28.60;51.40
30999;DHT22;20549;50.042;8.968;2023-07-31T08:55:39;28.40;51.70
30999;DHT22;20549;50.042;8.968;2023-07-31T08:58:06;28.20;51.80
30999;DHT22;20549;50.042;8.968;2023-07-31T09:00:33;28.00;52.70
30999;DHT22;20549;50.042;8.968;2023-07-31T09:03:00;27.90;52.50
30999;DHT22;20549;50.042;8.968;2023-07-31T09:05:26;27.90;52.80
30999;DHT22;20549;50.042;8.968;2023-07-31T09:07:52;27.80;52.80
30999;DHT22;20549;50.042;8.968;2023-07-31T09:10:19;27.80;52.70
30999;DHT22;20549;50.042;8.968;2023-07-31T09:12:46;27.70;52.60
30999;DHT22;20549;50.042;8.968;2023-07-31T09:15:12;27.70;52.60
30999;DHT22;20549;50.042;8.968;2023-07-31T09:17:39;27.60;52.70
30999;DHT22;20549;50.042;8.968;2023-07-31T09:20:21;27.50;52.70
30999;DHT22;20549;50.042;8.968;2023-07-31T09:22:48;27.40;52.90
30999;DHT22;20549;50.042;8.968;2023-07-31T09:25:24;27.40;53.20
30999;DHT22;20549;50.042;8.968;2023-07-31T09:27:54;27.40;53.50
30999;DHT22;20549;50.042;8.968;2023-07-31T09:30:20;27.40;53.90
30999;DHT22;20549;50.042;8.968;2023-07-31T09:32:47;27.50;53.90
30999;DHT22;20549;50.042;8.968;2023-07-31T09:37:42;27.50;53.40
30999;DHT22;20549;50.042;8.968;2023-07-31T09:40:09;27.50;53.30
30999;DHT22;20549;50.042;8.968;2023-07-31T09:42:35;27.60;53.50
30999;DHT22;20549;50.042;8.968;2023-07-31T09:45:08;27.60;53.30
30999;DHT22;20549;50.042;8.968;2023-07-31T09:47:35;27.50;53.30
30999;DHT22;20549;50.042;8.968;2023-07-31T09:50:01;27.50;53.50
30999;DHT22;20549;50.042;8.968;2023-07-31T09:52:28;27.50;53.50
30999;DHT22;20549;50.042;8.968;2023-07-31T09:54:54;27.60;53.70
30999;DHT22;20549;50.042;8.968;2023-07-31T09:57:21;27.70;53.70
30999;DHT22;20549;50.042;8.968;2023-07-31T09:59:48;27.80;54.10
30999;DHT22;20549;50.042;8.968;2023-07-31T10:02:14;27.90;53.80
30999;DHT22;20549;50.042;8.968;2023-07-31T10:04:41;28.00;53.50
30999;DHT22;20549;50.042;8.968;2023-07-31T10:07:07;28.00;53.30
30999;DHT22;20549;50.042;8.968;2023-07-31T10:09:34;28.00;53.10
30999;DHT22;20549;50.042;8.968;2023-07-31T10:12:00;28.00;53.00
30999;DHT22;20549;50.042;8.968;2023-07-31T10:14:27;28.00;53.10
30999;DHT22;20549;50.042;8.968;2023-07-31T10:16:54;27.90;53.20
30999;DHT22;20549;50.042;8.968;2023-07-31T10:19:20;27.90;53.20
30999;DHT22;20549;50.042;8.968;2023-07-31T10:21:48;27.90;53.40
30999;DHT22;20549;50.042;8.968;2023-07-31T10:24:13;27.80;53.30
30999;DHT22;20549;50.042;8.968;2023-07-31T10:26:40;27.80;53.40
30999;DHT22;20549;50.042;8.968;2023-07-31T10:29:07;27.90;53.30
30999;DHT22;20549;50.042;8.968;2023-07-31T10:31:33;27.90;53.30
30999;DHT22;20549;50.042;8.968;2023-07-31T10:34:00;27.90;53.20
30999;DHT22;20549;50.042;8.968;2023-07-31T10:36:26;28.00;52.90
30999;DHT22;20549;50.042;8.968;2023-07-31T10:38:54;28.10;52.80
30999;DHT22;20549;50.042;8.968;2023-07-31T10:41:20;28.00;52.50
30999;DHT22;20549;50.042;8.968;2023-07-31T10:43:46;28.10;52.50
30999;DHT22;20549;50.042;8.968;2023-07-31T10:46:13;28.10;52.80
30999;DHT22;20549;50.042;8.968;2023-07-31T10:48:40;28.30;52.90
30999;DHT22;20549;50.042;8.968;2023-07-31T10:51:09;28.40;52.80
30999;DHT22;20549;50.042;8.968;2023-07-31T10:53:38;28.60;52.60
30999;DHT22;20549;50.042;8.968;2023-07-31T10:56:05;28.70;52.30
30999;DHT22;20549;50.042;8.968;2023-07-31T10:58:31;28.80;52.00
30999;DHT22;20549;50.042;8.968;2023-07-31T11:01:04;28.80;51.90
30999;DHT22;20549;50.042;8.968;2023-07-31T11:03:46;28.90;51.90
30999;DHT22;20549;50.042;8.968;2023-07-31T11:06:08;28.90;51.80
30999;DHT22;20549;50.042;8.968;2023-07-31T11:08:35;28.90;51.60
30999;DHT22;20549;50.042;8.968;2023-07-31T11:13:31;28.90;51.60
30999;DHT22;20549;50.042;8.968;2023-07-31T11:15:58;28.90;51.60
30999;DHT22;20549;50.042;8.968;2023-07-31T11:18:24;29.00;51.60
30999;DHT22;20549;50.042;8.968;2023-07-31T11:20:51;28.90;51.50
30999;DHT22;20549;50.042;8.968;2023-07-31T11:23:17;28.90;51.30
30999;DHT22;20549;50.042;8.968;2023-07-31T11:25:44;28.90;51.30
30999;DHT22;20549;50.042;8.968;2023-07-31T11:28:11;28.80;51.20
30999;DHT22;20549;50.042;8.968;2023-07-31T11:30:37;28.80;51.20
30999;DHT22;20549;50.042;8.968;2023-07-31T11:33:04;28.80;51.30
30999;DHT22;20549;50.042;8.968;2023-07-31T11:35:42;28.70;51.00
30999;DHT22;20549;50.042;8.968;2023-07-31T11:38:53;28.70;51.00
30999;DHT22;20549;50.042;8.968;2023-07-31T11:40:42;28.70;51.10
30999;DHT22;20549;50.042;8.968;2023-07-31T11:43:09;28.60;51.20
30999;DHT22;20549;50.042;8.968;2023-07-31T11:45:35;28.60;51.80
30999;DHT22;20549;50.042;8.968;2023-07-31T11:48:02;28.60;51.00
30999;DHT22;20549;50.042;8.968;2023-07-31T11:50:29;28.60;50.80
30999;DHT22;20549;50.042;8.968;2023-07-31T11:52:59;28.60;50.60
30999;DHT22;20549;50.042;8.968;2023-07-31T11:55:24;28.70;50.60
30999;DHT22;20549;50.042;8.968;2023-07-31T11:57:51;28.60;50.40
30999;DHT22;20549;50.042;8.968;2023-07-31T12:00:18;28.60;50.40
30999;DHT22;20549;50.042;8.968;2023-07-31T12:02:44;28.60;50.20
30999;DHT22;20549;50.042;8.968;2023-07-31T12:05:13;28.60;50.30
30999;DHT22;20549;50.042;8.968;2023-07-31T12:07:46;28.60;50.30
30999;DHT22;20549;50.042;8.968;2023-07-31T12:10:22;28.50;50.30
30999;DHT22;20549;50.042;8.968;2023-07-31T12:12:39;28.50;50.30
30999;DHT22;20549;50.042;8.968;2023-07-31T12:15:13;28.40;50.10
30999;DHT22;20549;50.042;8.968;2023-07-31T12:17:32;28.30;50.00
30999;DHT22;20549;50.042;8.968;2023-07-31T12:19:58;28.20;50.10
30999;DHT22;20549;50.042;8.968;2023-07-31T12:22:25;28.10;50.30
30999;DHT22;20549;50.042;8.968;2023-07-31T12:24:52;28.00;50.30
30999;DHT22;20549;50.042;8.968;2023-07-31T12:27:18;28.00;50.50
30999;DHT22;20549;50.042;8.968;2023-07-31T12:29:45;27.80;50.40
30999;DHT22;20549;50.042;8.968;2023-07-31T12:32:21;27.80;50.60
30999;DHT22;20549;50.042;8.968;2023-07-31T12:34:47;27.70;50.70
30999;DHT22;20549;50.042;8.968;2023-07-31T12:37:14;27.70;50.80
30999;DHT22;20549;50.042;8.968;2023-07-31T12:39:40;27.70;51.00
30999;DHT22;20549;50.042;8.968;2023-07-31T12:42:07;27.60;51.10
30999;DHT22;20549;50.042;8.968;2023-07-31T12:44:33;27.60;51.20
30999;DHT22;20549;50.042;8.968;2023-07-31T12:47:00;27.60;51.20
30999;DHT22;20549;50.042;8.968;2023-07-31T12:49:27;27.60;51.30
30999;DHT22;20549;50.042;8.968;2023-07-31T12:51:53;27.60;51.20
30999;DHT22;20549;50.042;8.968;2023-07-31T12:54:20;27.60;51.20
30999;DHT22;20549;50.042;8.968;2023-07-31T12:56:46;27.50;51.20
30999;DHT22;20549;50.042;8.968;2023-07-31T12:59:13;27.50;51.30
30999;DHT22;20549;50.042;8.968;2023-07-31T13:01:39;27.40;51.20
30999;DHT22;20549;50.042;8.968;2023-07-31T13:04:06;27.40;51.30
30999;DHT22;20549;50.042;8.968;2023-07-31T13:06:33;27.30;51.40
30999;DHT22;20549;50.042;8.968;2023-07-31T13:08:59;27.20;51.50
30999;DHT22;20549;50.042;8.968;2023-07-31T13:11:26;27.20;51.70
30999;DHT22;20549;50.042;8.968;2023-07-31T13:13:52;27.10;52.40
30999;DHT22;20549;50.042;8.968;2023-07-31T13:16:19;27.10;51.90
30999;DHT22;20549;50.042;8.968;2023-07-31T13:18:46;27.10;52.00
30999;DHT22;20549;50.042;8.968;2023-07-31T13:21:12;27.20;52.10
30999;DHT22;20549;50.042;8.968;2023-07-31T13:23:39;27.20;52.00
30999;DHT22;20549;50.042;8.968;2023-07-31T13:26:05;27.30;52.20
30999;DHT22;20549;50.042;8.968;2023-07-31T13:28:32;27.40;52.10
30999;DHT22;20549;50.042;8.968;2023-07-31T13:30:59;27.40;52.10
30999;DHT22;20549;50.042;8.968;2023-07-31T13:33:25;27.60;52.30
30999;DHT22;20549;50.042;8.968;2023-07-31T13:35:52;27.70;52.20
30999;DHT22;20549;50.042;8.968;2023-07-31T13:38:18;27.90;52.30
30999;DHT22;20549;50.042;8.968;2023-07-31T13:40:45;28.00;52.20
30999;DHT22;20549;50.042;8.968;2023-07-31T13:43:11;28.10;52.00
30999;DHT22;20549;50.042;8.968;2023-07-31T13:45:38;28.20;51.60
30999;DHT22;20549;50.042;8.968;2023-07-31T13:48:05;28.30;51.60
30999;DHT22;20549;50.042;8.968;2023-07-31T13:50:31;28.40;51.60
30999;DHT22;20549;50.042;8.968;2023-07-31T13:52:58;28.40;51.50
30999;DHT22;20549;50.042;8.968;2023-07-31T13:55:24;28.50;51.40
30999;DHT22;20549;50.042;8.968;2023-07-31T13:57:51;28.50;51.30
30999;DHT22;20549;50.042;8.968;2023-07-31T14:00:18;28.60;51.30
30999;DHT22;20549;50.042;8.968;2023-07-31T14:02:44;28.70;51.40
30999;DHT22;20549;50.042;8.968;2023-07-31T14:05:11;28.80;51.30
30999;DHT22;20549;50.042;8.968;2023-07-31T14:07:37;28.90;51.20
30999;DHT22;20549;50.042;8.968;2023-07-31T14:10:04;28.90;51.30
30999;DHT22;20549;50.042;8.968;2023-07-31T14:12:31;29.00;51.20
30999;DHT22;20549;50.042;8.968;2023-07-31T14:14:57;29.00;50.90
30999;DHT22;20549;50.042;8.968;2023-07-31T14:17:24;29.10;50.70
30999;DHT22;20549;50.042;8.968;2023-07-31T14:19:50;29.10;50.60
30999;DHT22;20549;50.042;8.968;2023-07-31T14:22:27;29.10;50.50
30999;DHT22;20549;50.042;8.968;2023-07-31T14:24:43;29.00;50.40
30999;DHT22;20549;50.042;8.968;2023-07-31T14:27:10;29.00;50.30
30999;DHT22;20549;50.042;8.968;2023-07-31T14:29:37;28.90;50.20
30999;DHT22;20549;50.042;8.968;2023-07-31T14:32:03;28.80;50.20
30999;DHT22;20549;50.042;8.968;2023-07-31T14:34:30;28.70;50.30
30999;DHT22;20549;50.042;8.968;2023-07-31T14:36:56;28.60;50.40
30999;DHT22;20549;50.042;8.968;2023-07-31T14:39:23;28.50;50.40
30999;DHT22;20549;50.042;8.968;2023-07-31T14:41:50;28.50;50.50
30999;DHT22;20549;50.042;8.968;2023-07-31T14:44:16;28.40;50.70
30999;DHT22;20549;50.042;8.968;2023-07-31T14:46:43;28.30;50.70
30999;DHT22;20549;50.042;8.968;2023-07-31T14:49:09;28.10;50.70
30999;DHT22;20549;50.042;8.968;2023-07-31T14:51:36;28.00;50.80
30999;DHT22;20549;50.042;8.968;2023-07-31T14:54:03;27.90;50.90
30999;DHT22;20549;50.042;8.968;2023-07-31T14:56:29;27.80;51.00
30999;DHT22;20549;50.042;8.968;2023-07-31T14:58:56;27.60;51.00
30999;DHT22;20549;50.042;8.968;2023-07-31T15:01:23;27.50;51.30
30999;DHT22;20549;50.042;8.968;2023-07-31T15:03:49;27.40;51.50
30999;DHT22;20549;50.042;8.968;2023-07-31T15:06:15;27.30;51.70
30999;DHT22;20549;50.042;8.968;2023-07-31T15:08:42;27.20;51.80
30999;DHT22;20549;50.042;8.968;2023-07-31T15:11:09;27.10;52.00
30999;DHT22;20549;50.042;8.968;2023-07-31T15:13:35;27.00;52.10
30999;DHT22;20549;50.042;8.968;2023-07-31T15:16:02;26.90;52.20
30999;DHT22;20549;50.042;8.968;2023-07-31T15:18:28;26.90;52.40
30999;DHT22;20549;50.042;8.968;2023-07-31T15:20:55;26.80;52.50
30999;DHT22;20549;50.042;8.968;2023-07-31T15:23:22;26.80;52.60
30999;DHT22;20549;50.042;8.968;2023-07-31T15:25:48;26.70;52.50
30999;DHT22;20549;50.042;8.968;2023-07-31T15:28:15;26.60;52.50
30999;DHT22;20549;50.042;8.968;2023-07-31T15:30:41;26.50;52.40
30999;DHT22;20549;50.042;8.968;2023-07-31T15:33:08;26.50;52.40
30999;DHT22;20549;50.042;8.968;2023-07-31T15:35:35;26.40;52.50
30999;DHT22;20549;50.042;8.968;2023-07-31T15:38:01;26.30;53.20